Aérodrome :
LOGIN :

S'inscrire | Disclaimer

   EN    FR    IT 

 










Légende :    VFR   VFR Marginal   IFR   IFR Intensif   IFR Très Intensif
Visi : 
Plafond : 
>= 8 km
>= 3000ft
5 à 8 km
1000 à 3000 ft
1500m à 5 km
500 à 1000 ft
800 à 1500m
200 à 500 ft
< 800m
< 200 ft
Symboles :   Orages  Brouillard  Fortes neiges  Fortes précipitations  Vent > 20 kt
SIGMETs :   Divers  Orages  Givrage  Turbulence  Onde Orograph.  Cendres Volcan.






- Altitude de l'aérodrome : 645 ft
- Code IATA : DLE


LFGJ - Dole Tavaux

DERNIER METAR :
  • 060600Z AUTO 20005KT 0500 0450 R05/0650N FZFG VV/// M00/M00 Q1023

METARs EXPIRÉS :
  • 060530Z AUTO 20005KT 0550 0500 R05/0750N FZFG VV/// M01/M01 Q1023
  • 060500Z AUTO 23003KT 0450 R05/0550N FZFG VV/// M01/M01 Q1023
  • 060430Z AUTO VRB02KT 0500 0450 R05/0650N FZFG VV/// M01/M01 Q1023
  • 060400Z AUTO VRB01KT 0550 0500 R05/0650N FZFG VV/// M01/M01 Q1023
  • 060330Z AUTO VRB02KT 0500 R05/0600N FZFG VV/// M01/M01 Q1023

TAF TAF LFGJ
Valide du 06 à 06h jusqu'au 06 à 15h UTC


060500Z 0606/0615 20002KT 0400 FZFG VV///
BECMG 0610/0613 CAVOK



MET'MAP, la Météo Aéronautique d'un coup d'oeil ! - Copyright ORBIFLY Décembre 2007 - Disclaimer

ORBIFLY MET'MAP TEAM :

Programmation & Développement : Alexandra Zaïnal
Sur une idée originale de : Baudouin d'Aumeries
Assistance à la programmation : Marc-Olivier Méhu
Soutien technique & logistique : Manuel Goepfert

Contact : metmap@orbifly.com




SOURCES & CREDITS :

   NOAA